createdAt,value
2023-05-14T00:00:32.755Z,85.36
2023-05-14T00:02:59.538Z,85.15
2023-05-14T00:05:26.304Z,85.86
2023-05-14T00:07:52.870Z,85.55
2023-05-14T00:10:21.900Z,86.15
2023-05-14T00:12:48.899Z,85.09
2023-05-14T00:15:15.533Z,83.99
2023-05-14T00:17:42.532Z,83.92
2023-05-14T00:20:12.033Z,84.08
2023-05-14T00:22:39.468Z,83.85
2023-05-14T00:25:07.436Z,83.75
2023-05-14T00:27:34.746Z,83.83
2023-05-14T00:30:01.352Z,83.69
2023-05-14T00:32:27.916Z,84.27
2023-05-14T00:34:54.497Z,84.12
2023-05-14T00:37:21.043Z,84.52
2023-05-14T00:39:47.558Z,84.03
2023-05-14T00:42:14.131Z,83.79
2023-05-14T00:44:40.768Z,83.99
2023-05-14T00:47:08.375Z,84.72
2023-05-14T00:49:35.506Z,83.98
2023-05-14T00:52:02.416Z,84.56
2023-05-14T00:54:29.952Z,84.63
2023-05-14T00:56:56.927Z,85.92
2023-05-14T00:59:23.477Z,86.21
2023-05-14T01:01:50.116Z,86.10
2023-05-14T01:04:16.835Z,86.24
2023-05-14T01:06:46.263Z,86.79
2023-05-14T01:09:36.996Z,86.80
2023-05-14T01:12:26.991Z,87.06
2023-05-14T01:15:02.655Z,87.36
2023-05-14T01:17:33.215Z,86.94
2023-05-14T01:20:00.560Z,87.84
2023-05-14T01:22:27.229Z,87.28
2023-05-14T01:24:53.753Z,87.36
2023-05-14T01:27:20.223Z,87.14
2023-05-14T01:29:54.102Z,88.01
2023-05-14T01:32:24.508Z,86.64
2023-05-14T01:34:52.284Z,87.74
2023-05-14T01:37:19.515Z,86.68
2023-05-14T01:39:46.628Z,85.18
2023-05-14T01:42:13.609Z,85.05
2023-05-14T01:44:40.641Z,85.10
2023-05-14T01:47:07.157Z,84.76
2023-05-14T01:49:33.741Z,85.31
2023-05-14T01:52:00.400Z,85.72
2023-05-14T01:54:26.908Z,85.16
2023-05-14T01:56:53.434Z,86.25
2023-05-14T01:59:19.979Z,85.03
2023-05-14T02:01:46.572Z,85.13
2023-05-14T02:04:13.211Z,86.08
2023-05-14T02:06:39.733Z,86.71
2023-05-14T02:09:06.346Z,86.92
2023-05-14T02:11:32.933Z,87.38
2023-05-14T02:13:59.469Z,87.48
2023-05-14T02:16:26.080Z,88.54
2023-05-14T02:18:52.892Z,89.02
2023-05-14T02:21:19.451Z,90.65
2023-05-14T02:23:46.116Z,91.80
2023-05-14T02:26:12.667Z,91.40
2023-05-14T02:28:39.186Z,93.65
2023-05-14T02:31:05.904Z,93.42
2023-05-14T02:33:32.760Z,92.70
2023-05-14T02:35:59.382Z,93.51
2023-05-14T02:38:26.551Z,94.16
2023-05-14T02:40:53.161Z,94.82
2023-05-14T02:43:19.735Z,94.96
2023-05-14T02:45:46.295Z,95.83
2023-05-14T02:48:12.938Z,95.76
2023-05-14T02:50:39.616Z,95.90
2023-05-14T02:53:06.178Z,96.23
2023-05-14T02:55:32.658Z,96.69
2023-05-14T02:57:59.240Z,96.90
2023-05-14T03:00:25.932Z,98.42
2023-05-14T03:02:53.069Z,96.69
2023-05-14T03:05:20.322Z,97.03
2023-05-14T03:07:46.881Z,95.86
2023-05-14T03:10:13.441Z,96.26
2023-05-14T03:12:40.129Z,97.19
2023-05-14T03:15:07.337Z,97.63
2023-05-14T03:17:33.884Z,97.96
2023-05-14T03:20:00.704Z,98.75
2023-05-14T03:22:27.377Z,98.78
2023-05-14T03:24:53.888Z,99.05
2023-05-14T03:27:20.842Z,99.97
2023-05-14T03:29:47.372Z,99.94
2023-05-14T03:32:14.520Z,99.85
2023-05-14T03:34:41.535Z,99.28
2023-05-14T03:37:08.048Z,99.01
2023-05-14T03:39:34.738Z,99.25
2023-05-14T03:42:01.338Z,98.38
2023-05-14T03:44:27.898Z,98.45
2023-05-14T03:46:54.423Z,98.14
2023-05-14T03:49:20.974Z,97.98
2023-05-14T03:51:47.518Z,98.71
2023-05-14T03:54:14.036Z,98.70
2023-05-14T03:56:40.537Z,98.56
2023-05-14T03:59:07.074Z,98.40
2023-05-14T04:01:33.619Z,98.35
2023-05-14T04:04:00.246Z,97.74
2023-05-14T04:06:26.883Z,97.59
2023-05-14T04:08:53.750Z,97.74
2023-05-14T04:11:21.346Z,98.36
2023-05-14T04:13:47.946Z,97.60
2023-05-14T04:16:14.479Z,98.08
2023-05-14T04:18:41.043Z,97.24
2023-05-14T04:21:07.697Z,96.03
2023-05-14T04:23:34.306Z,96.16
2023-05-14T04:26:01.021Z,94.50
2023-05-14T04:28:27.566Z,92.79
2023-05-14T04:30:54.146Z,93.71
2023-05-14T04:33:20.749Z,92.12
2023-05-14T04:35:47.334Z,91.81
2023-05-14T04:38:14.471Z,92.77
2023-05-14T04:40:43.792Z,92.98
2023-05-14T04:43:10.741Z,93.21
2023-05-14T04:45:37.323Z,93.70
2023-05-14T04:48:04.812Z,93.00
2023-05-14T04:50:31.458Z,92.61
2023-05-14T04:52:57.958Z,91.83
2023-05-14T04:55:24.599Z,90.93
2023-05-14T04:57:51.231Z,90.14
2023-05-14T05:00:18.124Z,89.15
2023-05-14T05:02:44.896Z,88.57
2023-05-14T05:05:11.629Z,89.58
2023-05-14T05:07:38.148Z,89.33
2023-05-14T05:10:05.015Z,87.95
2023-05-14T05:12:31.561Z,88.16
2023-05-14T05:14:58.138Z,88.01
2023-05-14T05:17:25.135Z,87.83
2023-05-14T05:19:52.575Z,87.80
2023-05-14T05:22:20.312Z,87.36
2023-05-14T05:24:49.239Z,87.94
2023-05-14T05:27:16.565Z,86.77
2023-05-14T05:29:44.515Z,85.44
2023-05-14T05:32:11.134Z,85.13
2023-05-14T05:34:37.763Z,84.08
2023-05-14T05:37:06.056Z,82.71
2023-05-14T05:39:35.070Z,82.54
2023-05-14T05:42:02.571Z,81.88
2023-05-14T05:44:29.174Z,81.26
2023-05-14T05:46:57.263Z,81.09
2023-05-14T05:49:24.257Z,81.23
2023-05-14T05:51:50.881Z,81.30
2023-05-14T05:54:17.465Z,80.36
2023-05-14T05:56:44.036Z,80.76
2023-05-14T05:59:10.572Z,81.30
2023-05-14T06:01:37.351Z,80.72
2023-05-14T06:04:06.238Z,80.76
2023-05-14T06:06:33.053Z,79.99
2023-05-14T06:08:59.709Z,78.61
2023-05-14T06:11:26.578Z,77.31
2023-05-14T06:13:53.598Z,77.82
2023-05-14T06:16:20.947Z,77.71
2023-05-14T06:18:47.666Z,76.36
2023-05-14T06:21:14.194Z,75.57
2023-05-14T06:23:41.301Z,74.94
2023-05-14T06:26:07.831Z,74.40
2023-05-14T06:28:34.448Z,75.05
2023-05-14T06:31:01.051Z,75.62
2023-05-14T06:33:31.288Z,75.66
2023-05-14T06:36:06.793Z,74.61
2023-05-14T06:38:33.771Z,73.50
2023-05-14T06:41:00.319Z,74.66
2023-05-14T06:43:26.916Z,74.73
2023-05-14T06:45:53.870Z,73.03
2023-05-14T06:48:20.906Z,74.17
2023-05-14T06:50:49.048Z,73.55
2023-05-14T06:53:15.701Z,73.08
2023-05-14T06:55:42.281Z,73.11
2023-05-14T06:58:09.453Z,72.91
2023-05-14T07:00:36.052Z,71.59
2023-05-14T07:03:02.677Z,71.03
2023-05-14T07:05:29.335Z,71.18
2023-05-14T07:07:55.928Z,70.76
2023-05-14T07:10:22.843Z,71.01
2023-05-14T07:12:49.800Z,69.95
2023-05-14T07:15:16.500Z,71.34
2023-05-14T07:17:43.128Z,69.94
2023-05-14T07:20:10.294Z,70.00
2023-05-14T07:22:36.805Z,70.08
2023-05-14T07:25:03.567Z,69.19
2023-05-14T07:27:30.143Z,68.54
2023-05-14T07:29:56.651Z,67.99
2023-05-14T07:32:25.149Z,67.12
2023-05-14T07:34:51.817Z,66.40
2023-05-14T07:37:18.899Z,65.98
2023-05-14T07:39:45.650Z,66.42
2023-05-14T07:42:19.379Z,66.24
2023-05-14T07:44:51.959Z,65.75
2023-05-14T07:47:18.596Z,66.26
2023-05-14T07:49:45.309Z,66.68
2023-05-14T07:52:11.928Z,65.83
2023-05-14T07:54:38.637Z,65.82
2023-05-14T07:57:05.450Z,65.32
2023-05-14T07:59:32.126Z,65.96
2023-05-14T08:01:58.782Z,65.98
2023-05-14T08:04:25.482Z,66.38
2023-05-14T08:06:52.022Z,65.72
2023-05-14T08:09:18.606Z,65.99
2023-05-14T08:11:45.283Z,65.70
2023-05-14T08:14:11.880Z,65.35
2023-05-14T08:16:38.855Z,63.72
2023-05-14T08:19:05.665Z,62.99
2023-05-14T08:21:32.766Z,63.06
2023-05-14T08:23:59.503Z,63.16
2023-05-14T08:26:26.199Z,62.70
2023-05-14T08:28:54.522Z,62.90
2023-05-14T08:31:21.156Z,62.20
2023-05-14T08:33:47.758Z,61.21
2023-05-14T08:36:14.434Z,60.95
2023-05-14T08:38:42.062Z,60.96
2023-05-14T08:41:09.191Z,60.28
2023-05-14T08:44:06.762Z,61.46
2023-05-14T08:46:34.455Z,60.09
2023-05-14T08:49:11.268Z,59.01
2023-05-14T08:51:38.422Z,58.96
2023-05-14T08:54:05.866Z,58.79
2023-05-14T08:56:33.392Z,59.43
2023-05-14T08:59:00.449Z,61.01
2023-05-14T09:01:27.142Z,60.12
2023-05-14T09:03:55.039Z,59.43
2023-05-14T09:06:22.584Z,58.53
2023-05-14T09:08:49.319Z,59.76
2023-05-14T09:11:15.856Z,59.06
2023-05-14T09:13:43.030Z,57.38
2023-05-14T09:16:09.584Z,56.61
2023-05-14T09:18:36.904Z,55.70
2023-05-14T09:21:04.426Z,55.53
2023-05-14T09:23:33.873Z,54.85
2023-05-14T09:26:04.641Z,54.65
2023-05-14T09:28:31.223Z,54.39
2023-05-14T09:30:57.885Z,53.25
2023-05-14T09:33:28.488Z,53.59
2023-05-14T09:36:02.283Z,52.04
2023-05-14T09:38:30.246Z,53.72
2023-05-14T09:40:57.980Z,52.58
2023-05-14T09:43:24.711Z,50.41
2023-05-14T09:45:51.282Z,49.66
2023-05-14T09:48:17.882Z,48.23
2023-05-14T09:50:45.445Z,48.54
2023-05-14T09:53:13.634Z,47.15
2023-05-14T09:55:40.331Z,47.27
2023-05-14T09:58:06.888Z,51.39
2023-05-14T10:00:34.800Z,53.76
2023-05-14T10:03:07.117Z,51.93
2023-05-14T10:05:38.298Z,51.41
2023-05-14T10:08:10.065Z,51.00
2023-05-14T10:10:37.992Z,52.36
2023-05-14T10:13:07.689Z,49.35
2023-05-14T10:15:40.622Z,51.12
2023-05-14T10:18:12.247Z,53.37
2023-05-14T10:20:41.039Z,50.77
2023-05-14T10:23:07.837Z,50.66
2023-05-14T10:25:36.877Z,50.71
2023-05-14T10:28:03.595Z,53.76
2023-05-14T10:30:30.178Z,53.97
2023-05-14T10:33:07.340Z,53.51
2023-05-14T10:36:02.645Z,52.89
2023-05-14T10:38:32.843Z,53.24
2023-05-14T10:41:14.926Z,51.64
2023-05-14T10:43:42.266Z,50.51
2023-05-14T10:46:10.567Z,50.45
2023-05-14T10:48:40.947Z,53.52
2023-05-14T10:51:09.297Z,52.42
2023-05-14T10:53:36.827Z,53.29
2023-05-14T10:56:05.860Z,52.41
2023-05-14T10:58:35.314Z,50.43
2023-05-14T11:01:02.199Z,50.73
2023-05-14T11:03:32.196Z,51.10
2023-05-14T11:06:03.291Z,50.18
2023-05-14T11:08:31.331Z,50.92
2023-05-14T11:10:57.934Z,50.72
2023-05-14T11:13:26.694Z,51.32
2023-05-14T11:15:53.600Z,51.79
2023-05-14T11:18:31.038Z,51.03
2023-05-14T11:21:01.340Z,50.09
2023-05-14T11:23:28.647Z,48.68
2023-05-14T11:25:56.538Z,49.64
2023-05-14T11:28:24.293Z,48.71
2023-05-14T11:30:51.520Z,49.59
2023-05-14T11:33:18.899Z,50.62
2023-05-14T11:35:46.596Z,49.54
2023-05-14T11:38:21.185Z,49.40
2023-05-14T11:40:59.220Z,50.27
2023-05-14T11:43:29.260Z,52.13
2023-05-14T11:45:56.530Z,47.95
2023-05-14T11:48:24.243Z,48.18
2023-05-14T11:50:52.114Z,47.91
2023-05-14T11:53:30.833Z,46.83
2023-05-14T11:55:57.958Z,47.99
2023-05-14T11:58:24.784Z,48.10
2023-05-14T12:00:52.561Z,50.93
2023-05-14T12:03:26.010Z,48.12
2023-05-14T12:06:00.067Z,45.67
2023-05-14T12:08:29.032Z,44.33
2023-05-14T12:10:56.292Z,46.16
2023-05-14T12:13:26.632Z,43.76
2023-05-14T12:15:59.325Z,41.69
2023-05-14T12:18:27.596Z,41.79
2023-05-14T12:20:54.442Z,40.15
2023-05-14T12:23:31.028Z,41.17
2023-05-14T12:26:06.544Z,42.52
2023-05-14T12:28:37.679Z,41.75
2023-05-14T12:31:05.054Z,42.44
2023-05-14T12:33:34.893Z,41.43
2023-05-14T12:36:10.052Z,41.57
2023-05-14T12:38:46.768Z,42.52
2023-05-14T12:41:13.288Z,41.52
2023-05-14T12:43:42.719Z,40.67
2023-05-14T12:46:09.474Z,42.85
2023-05-14T12:48:36.039Z,40.64
2023-05-14T12:51:02.583Z,40.84
2023-05-14T12:53:29.112Z,40.75
2023-05-14T12:55:55.678Z,39.76
2023-05-14T12:58:22.637Z,41.55
2023-05-14T13:00:49.280Z,41.63
2023-05-14T13:03:15.981Z,40.31
2023-05-14T13:05:42.608Z,40.29
2023-05-14T13:08:09.437Z,38.79
2023-05-14T13:10:36.116Z,39.00
2023-05-14T13:13:02.627Z,38.26
2023-05-14T13:23:56.311Z,39.15
2023-05-14T13:26:22.925Z,38.17
2023-05-14T13:28:49.461Z,41.22
2023-05-14T13:31:16.172Z,39.00
2023-05-14T13:33:44.565Z,41.27
2023-05-14T13:36:13.481Z,42.12
2023-05-14T13:38:40.098Z,41.79
2023-05-14T13:41:06.789Z,43.46
2023-05-14T13:43:34.561Z,43.82
2023-05-14T13:46:02.384Z,41.36
2023-05-14T13:48:29.331Z,42.61
2023-05-14T13:50:55.906Z,42.90
2023-05-14T13:53:23.886Z,43.03
2023-05-14T13:55:50.777Z,43.75
2023-05-14T13:58:17.438Z,42.50
2023-05-14T14:00:43.972Z,44.55
2023-05-14T14:03:10.674Z,43.70
2023-05-14T14:05:37.618Z,42.61
2023-05-14T14:08:13.124Z,42.58
2023-05-14T14:10:49.687Z,43.83
2023-05-14T14:13:16.354Z,44.57
2023-05-14T14:15:43.765Z,43.83
2023-05-14T14:18:10.598Z,42.93
2023-05-14T14:20:37.147Z,42.88
2023-05-14T14:23:03.675Z,42.48
2023-05-14T14:25:30.337Z,40.65
2023-05-14T14:27:56.941Z,40.17
2023-05-14T14:30:23.499Z,41.91
2023-05-14T14:32:50.651Z,42.37
2023-05-14T14:35:19.779Z,44.88
2023-05-14T14:37:50.766Z,44.34
2023-05-14T14:40:17.415Z,44.47
2023-05-14T14:42:44.361Z,45.83
2023-05-14T14:45:11.903Z,44.65
2023-05-14T14:47:38.641Z,44.94
2023-05-14T14:50:06.219Z,44.84
2023-05-14T14:52:33.051Z,45.31
2023-05-14T14:54:59.620Z,45.82
2023-05-14T14:57:26.864Z,45.96
2023-05-14T14:59:53.500Z,46.51
2023-05-14T15:02:20.277Z,44.72
2023-05-14T15:04:46.952Z,44.31
2023-05-14T15:07:15.887Z,46.14
2023-05-14T15:09:42.365Z,45.31
2023-05-14T15:12:10.157Z,46.42
2023-05-14T15:14:36.766Z,45.83
2023-05-14T15:17:03.562Z,46.81
2023-05-14T15:19:31.803Z,47.38
2023-05-14T15:21:58.583Z,48.37
2023-05-14T15:24:26.172Z,48.63
2023-05-14T15:26:53.746Z,47.80
2023-05-14T15:29:20.503Z,48.49
2023-05-14T15:31:47.229Z,48.58
2023-05-14T15:34:13.818Z,48.37
2023-05-14T15:36:40.627Z,48.90
2023-05-14T15:39:10.207Z,47.93
2023-05-14T15:41:36.881Z,48.37
2023-05-14T15:44:03.712Z,49.26
2023-05-14T15:46:31.043Z,48.87
2023-05-14T15:48:58.211Z,48.87
2023-05-14T15:51:24.753Z,47.94
2023-05-14T15:53:53.474Z,48.16
2023-05-14T15:56:20.936Z,48.75
2023-05-14T15:58:47.476Z,49.56
2023-05-14T16:01:14.038Z,48.92
2023-05-14T16:03:40.776Z,48.86
2023-05-14T16:06:07.595Z,48.59
2023-05-14T16:08:34.121Z,46.82
2023-05-14T16:11:03.210Z,46.30
2023-05-14T16:13:29.741Z,47.38
2023-05-14T16:15:56.423Z,46.98
2023-05-14T16:18:25.167Z,47.64
2023-05-14T16:20:52.028Z,48.49
2023-05-14T16:23:18.902Z,48.49
2023-05-14T16:25:45.501Z,46.78
2023-05-14T16:28:12.332Z,48.50
2023-05-14T16:30:38.943Z,47.93
2023-05-14T16:33:06.487Z,47.45
2023-05-14T16:35:33.861Z,48.65
2023-05-14T16:38:00.441Z,48.77
2023-05-14T16:40:26.974Z,49.76
2023-05-14T16:42:53.671Z,52.34
2023-05-14T16:45:20.316Z,51.25
2023-05-14T16:47:46.882Z,51.44
2023-05-14T16:50:14.913Z,53.46
2023-05-14T16:52:41.474Z,54.96
2023-05-14T16:55:08.481Z,55.77
2023-05-14T16:57:35.229Z,58.77
2023-05-14T17:00:05.009Z,58.00
2023-05-14T17:02:32.775Z,58.41
2023-05-14T17:04:59.634Z,60.04
2023-05-14T17:07:26.254Z,60.17
2023-05-14T17:09:52.833Z,59.81
2023-05-14T17:12:19.369Z,59.76
2023-05-14T17:14:45.902Z,61.54
2023-05-14T17:17:12.456Z,62.24
2023-05-14T17:19:38.991Z,61.16
2023-05-14T17:22:05.930Z,60.49
2023-05-14T17:24:32.872Z,60.61
2023-05-14T17:26:59.416Z,59.99
2023-05-14T17:29:26.303Z,59.92
2023-05-14T17:31:52.982Z,59.32
2023-05-14T17:34:22.273Z,58.66
2023-05-14T17:36:48.912Z,58.45
2023-05-14T17:39:16.053Z,57.81
2023-05-14T17:41:42.885Z,57.24
2023-05-14T17:44:11.385Z,56.95
2023-05-14T17:46:39.520Z,56.53
2023-05-14T17:49:06.128Z,57.15
2023-05-14T17:51:32.650Z,57.79
2023-05-14T17:53:59.150Z,55.76
2023-05-14T17:56:25.951Z,57.35
2023-05-14T17:58:52.731Z,58.60
2023-05-14T18:01:19.387Z,58.75
2023-05-14T18:03:46.213Z,60.41
2023-05-14T18:06:12.948Z,60.61
2023-05-14T18:08:39.587Z,61.09
2023-05-14T18:11:06.860Z,61.76
2023-05-14T18:13:33.506Z,62.36
2023-05-14T18:16:00.822Z,61.16
2023-05-14T18:18:27.503Z,62.64
2023-05-14T18:20:54.111Z,62.52
2023-05-14T18:23:20.661Z,63.57
2023-05-14T18:25:48.178Z,64.45
2023-05-14T18:28:15.313Z,64.38
2023-05-14T18:30:43.449Z,65.31
2023-05-14T18:33:10.293Z,65.44
2023-05-14T18:35:37.310Z,66.18
2023-05-14T18:38:04.083Z,66.71
2023-05-14T18:40:30.706Z,67.54
2023-05-14T18:42:58.054Z,68.70
2023-05-14T18:45:25.020Z,67.88
2023-05-14T18:47:52.124Z,69.40
2023-05-14T18:50:18.900Z,68.95
2023-05-14T18:52:45.510Z,68.98
2023-05-14T18:55:12.066Z,69.09
2023-05-14T18:57:38.590Z,68.20
2023-05-14T19:00:06.210Z,70.04
2023-05-14T19:02:32.828Z,68.71
2023-05-14T19:04:59.378Z,69.89
2023-05-14T19:07:27.207Z,69.00
2023-05-14T19:09:53.705Z,69.58
2023-05-14T19:12:20.232Z,69.63
2023-05-14T19:14:46.740Z,69.85
2023-05-14T19:17:13.383Z,70.30
2023-05-14T19:19:39.908Z,69.69
2023-05-14T19:22:07.149Z,71.45
2023-05-14T19:24:33.844Z,73.74
2023-05-14T19:27:00.855Z,71.73
2023-05-14T19:29:27.395Z,73.47
2023-05-14T19:31:54.123Z,72.36
2023-05-14T19:34:20.753Z,72.07
2023-05-14T19:36:47.395Z,72.13
2023-05-14T19:39:13.909Z,71.73
2023-05-14T19:41:40.633Z,72.00
2023-05-14T19:44:07.442Z,72.01
2023-05-14T19:46:34.204Z,71.45
2023-05-14T19:49:00.780Z,71.76
2023-05-14T19:51:27.512Z,71.96
2023-05-14T19:53:54.114Z,72.49
2023-05-14T19:56:21.678Z,72.08
2023-05-14T19:58:48.329Z,72.36
2023-05-14T20:01:15.131Z,74.00
2023-05-14T20:03:41.919Z,73.80
2023-05-14T20:06:08.498Z,73.94
2023-05-14T20:08:35.036Z,74.73
2023-05-14T20:11:01.981Z,74.23
2023-05-14T20:13:31.657Z,73.46
2023-05-14T20:15:58.780Z,72.54
2023-05-14T20:18:25.438Z,75.21
2023-05-14T20:20:52.006Z,76.46
2023-05-14T20:23:18.955Z,74.94
2023-05-14T20:25:45.522Z,75.58
2023-05-14T20:28:12.123Z,74.68
2023-05-14T20:30:39.145Z,74.38
2023-05-14T20:33:06.521Z,74.25
2023-05-14T20:35:33.271Z,74.85
2023-05-14T20:38:00.230Z,75.92
2023-05-14T20:40:26.841Z,75.93
2023-05-14T20:42:53.484Z,76.74
2023-05-14T20:45:20.116Z,77.83
2023-05-14T20:47:46.738Z,77.18
2023-05-14T20:50:13.740Z,76.89
2023-05-14T20:52:40.679Z,75.80
2023-05-14T20:55:08.021Z,74.32
2023-05-14T20:57:34.618Z,74.77
2023-05-14T21:00:02.530Z,74.48
2023-05-14T21:02:29.165Z,74.74
2023-05-14T21:04:55.913Z,75.32
2023-05-14T21:07:22.764Z,74.81
2023-05-14T21:09:52.474Z,75.60
2023-05-14T21:12:19.552Z,75.92
2023-05-14T21:14:46.396Z,76.40
2023-05-14T21:17:12.994Z,76.52
2023-05-14T21:19:39.771Z,77.84
2023-05-14T21:22:06.879Z,77.45
2023-05-14T21:24:34.135Z,78.41
2023-05-14T21:27:07.190Z,78.81
2023-05-14T21:29:34.860Z,80.15
2023-05-14T21:32:01.668Z,80.79
2023-05-14T21:34:29.866Z,81.20
2023-05-14T21:36:58.386Z,81.03
2023-05-14T21:39:24.953Z,79.57
2023-05-14T21:41:51.855Z,78.05
2023-05-14T21:44:18.856Z,77.99
2023-05-14T21:46:50.189Z,79.17
2023-05-14T21:49:16.721Z,80.00
2023-05-14T21:51:43.271Z,80.96
2023-05-14T21:54:09.823Z,81.07
2023-05-14T21:56:37.201Z,81.23
2023-05-14T21:59:03.746Z,82.12
2023-05-14T22:01:30.356Z,81.49
2023-05-14T22:03:58.023Z,82.75
2023-05-14T22:06:24.895Z,82.00
2023-05-14T22:08:51.529Z,82.31
2023-05-14T22:11:18.069Z,81.53
2023-05-14T22:13:47.522Z,82.04
2023-05-14T22:16:19.633Z,81.64
2023-05-14T22:18:47.223Z,80.43
2023-05-14T22:21:13.851Z,80.24
2023-05-14T22:23:40.401Z,80.51
2023-05-14T22:26:07.152Z,80.92
2023-05-14T22:28:33.644Z,80.47
2023-05-14T22:31:00.406Z,79.81
2023-05-14T22:33:27.060Z,79.67
2023-05-14T22:35:53.613Z,80.61
2023-05-14T22:38:20.719Z,81.24
2023-05-14T22:40:47.242Z,80.15
2023-05-14T22:43:13.776Z,81.10
2023-05-14T22:45:40.389Z,81.40
2023-05-14T22:48:07.184Z,81.44
2023-05-14T22:50:33.764Z,80.10
2023-05-14T22:53:00.335Z,77.75
2023-05-14T22:55:27.364Z,78.96
2023-05-14T22:57:54.146Z,79.19
2023-05-14T23:00:20.691Z,79.69
2023-05-14T23:02:47.269Z,79.74
2023-05-14T23:05:13.808Z,80.25
2023-05-14T23:07:40.612Z,79.79
2023-05-14T23:10:07.514Z,80.03
2023-05-14T23:12:34.222Z,79.56
2023-05-14T23:15:00.795Z,79.94
2023-05-14T23:17:27.529Z,79.28
2023-05-14T23:19:54.294Z,78.53
2023-05-14T23:22:21.087Z,79.85
2023-05-14T23:24:47.599Z,78.75
2023-05-14T23:27:14.159Z,76.44
2023-05-14T23:29:41.923Z,76.28
2023-05-14T23:32:08.704Z,77.07
2023-05-14T23:34:35.470Z,78.25
2023-05-14T23:37:02.312Z,78.98
2023-05-14T23:39:28.970Z,78.63
2023-05-14T23:41:55.581Z,79.22
2023-05-14T23:44:22.152Z,79.96
2023-05-14T23:46:48.848Z,79.49
2023-05-14T23:49:15.500Z,80.26
2023-05-14T23:51:42.107Z,81.03
2023-05-14T23:54:08.632Z,80.67
2023-05-14T23:56:35.840Z,81.08
2023-05-14T23:59:03.590Z,81.01
